Time;durP1;ratioP1;P1;durP2;ratioP2;P2;SDS_P1;SDS_P2;PMS_P1;PMS_P2;Temp;Humidity;BMP_temperature;BMP_pressure;BME280_temperature;BME280_humidity;BME280_pressure;Samples;Min_cycle;Max_cycle;Signal;HPM_P1;HPM_P2
2020/12/02 00:01:54;;;;;;;28.37;22.33;;;4.60;99.90;;;;;;5137117;27;20889;-28
2020/12/02 00:04:21;;;;;;;35.80;23.80;;;4.60;99.90;;;;;;5156202;27;20521;-28
2020/12/02 00:06:51;;;;;;;27.90;21.10;;;4.50;99.90;;;;;;5142463;27;20481;-29
2020/12/02 00:09:21;;;;;;;30.50;24.60;;;4.50;99.90;;;;;;5137320;27;20426;-29
2020/12/02 00:11:50;;;;;;;28.73;23.00;;;4.50;99.90;;;;;;5136923;27;20534;-28
2020/12/02 00:14:24;;;;;;;31.83;23.17;;;4.40;99.90;;;;;;5137540;27;20471;-29
2020/12/02 00:16:54;;;;;;;31.43;23.37;;;4.40;99.90;;;;;;5136001;27;20446;-28
2020/12/02 00:19:21;;;;;;;30.63;21.87;;;4.50;99.90;;;;;;5119035;27;20547;-28
2020/12/02 00:22:07;;;;;;;30.43;23.87;;;4.50;99.90;;;;;;5136745;27;20784;-28
2020/12/02 00:24:35;;;;;;;29.83;22.10;;;4.50;99.90;;;;;;5135908;27;20870;-28
2020/12/02 00:27:05;;;;;;;30.10;20.70;;;4.50;99.90;;;;;;5136129;27;20439;-29
2020/12/02 00:29:32;;;;;;;22.67;18.73;;;4.50;99.90;;;;;;5137535;27;20462;-29
2020/12/02 00:32:01;;;;;;;25.97;17.87;;;4.50;99.90;;;;;;5136589;27;20462;-30
2020/12/02 00:34:28;;;;;;;26.33;20.90;;;4.50;99.90;;;;;;5118958;27;20438;-28
2020/12/02 00:36:57;;;;;;;27.10;20.43;;;4.50;99.90;;;;;;5136501;27;20418;-28
2020/12/02 00:39:24;;;;;;;24.77;18.53;;;4.50;99.90;;;;;;5137315;27;20449;-28
2020/12/02 00:41:52;;;;;;;27.60;18.90;;;4.40;99.90;;;;;;5136745;27;20533;-28
2020/12/02 00:44:18;;;;;;;25.47;20.03;;;4.40;99.90;;;;;;5136359;27;20453;-28
2020/12/02 00:46:47;;;;;;;22.63;18.40;;;4.30;99.90;;;;;;5136301;27;20495;-29
2020/12/02 00:49:17;;;;;;;21.93;17.67;;;4.20;99.90;;;;;;5136513;27;20505;-29
2020/12/02 00:51:45;;;;;;;20.77;17.97;;;4.20;99.90;;;;;;5137170;27;21182;-28
2020/12/02 00:54:12;;;;;;;24.03;18.77;;;4.20;99.90;;;;;;5133361;27;20485;-28
2020/12/02 00:56:46;;;;;;;23.70;19.20;;;4.20;99.90;;;;;;5116691;27;20437;-29
2020/12/02 00:59:21;;;;;;;18.80;15.70;;;4.30;99.90;;;;;;5135414;27;20434;-28
2020/12/02 01:01:57;;;;;;;19.90;15.57;;;4.30;99.90;;;;;;5135402;27;20746;-29
2020/12/02 01:04:26;;;;;;;23.30;18.03;;;4.30;99.90;;;;;;5154557;27;20451;-28
2020/12/02 01:06:56;;;;;;;20.77;16.90;;;4.30;99.90;;;;;;5157385;27;20675;-29
2020/12/02 01:09:24;;;;;;;22.73;17.50;;;4.30;99.90;;;;;;5137626;27;20520;-27
2020/12/02 01:11:55;;;;;;;25.60;18.13;;;4.30;99.90;;;;;;5157469;27;20517;-28
2020/12/02 01:14:25;;;;;;;22.97;17.20;;;4.30;99.90;;;;;;5155056;27;20444;-29
2020/12/02 01:16:57;;;;;;;24.20;18.50;;;4.20;99.90;;;;;;5155791;27;20433;-29
2020/12/02 01:19:30;;;;;;;23.20;17.30;;;4.20;99.90;;;;;;5115505;27;20521;-29
2020/12/02 01:22:01;;;;;;;20.80;16.17;;;4.20;99.90;;;;;;5114116;28;20435;-28
2020/12/02 01:24:33;;;;;;;20.57;16.20;;;4.10;99.90;;;;;;5114428;28;20443;-28
2020/12/02 01:27:11;;;;;;;18.00;15.13;;;4.10;99.90;;;;;;5112833;28;20446;-29
2020/12/02 01:29:40;;;;;;;24.83;18.20;;;4.20;99.90;;;;;;5114442;28;20455;-28
2020/12/02 01:32:07;;;;;;;21.27;15.73;;;4.20;99.90;;;;;;5113551;28;20467;-28
2020/12/02 01:34:36;;;;;;;22.83;15.43;;;4.20;99.90;;;;;;5113204;28;20533;-29
2020/12/02 01:37:28;;;;;;;20.90;14.90;;;4.20;99.90;;;;;;5112986;28;20757;-28
2020/12/02 01:40:05;;;;;;;18.93;14.47;;;4.20;99.90;;;;;;5112670;28;20470;-29
2020/12/02 01:42:32;;;;;;;21.53;15.00;;;4.20;99.90;;;;;;5113728;28;20467;-28
2020/12/02 01:45:10;;;;;;;19.70;15.87;;;4.10;99.90;;;;;;5113761;28;20759;-28
2020/12/02 01:47:43;;;;;;;19.73;14.60;;;4.00;99.90;;;;;;5113792;28;20879;-30
2020/12/02 01:50:20;;;;;;;17.10;12.93;;;3.90;99.90;;;;;;5113995;28;20500;-28
2020/12/02 01:53:02;;;;;;;22.40;15.80;;;4.00;99.90;;;;;;5114259;28;20462;-28
2020/12/02 01:55:36;;;;;;;18.70;13.57;;;3.90;99.90;;;;;;5112985;28;21080;-30
2020/12/02 01:58:15;;;;;;;20.20;14.43;;;3.90;99.90;;;;;;5118728;27;20610;-29
2020/12/02 02:00:50;;;;;;;19.37;13.57;;;3.80;99.90;;;;;;5132985;27;21177;-28
2020/12/02 02:03:18;;;;;;;18.07;14.33;;;3.80;99.90;;;;;;5133354;27;21009;-28
2020/12/02 02:05:56;;;;;;;20.03;14.80;;;3.80;99.90;;;;;;5134960;27;20499;-29
2020/12/02 02:08:26;;;;;;;18.77;13.20;;;3.80;99.90;;;;;;5133225;27;20971;-28
2020/12/02 02:10:55;;;;;;;18.40;13.00;;;3.90;99.90;;;;;;5134412;27;20546;-28
2020/12/02 02:13:54;;;;;;;19.80;13.77;;;3.90;99.90;;;;;;5135358;27;20485;-28
2020/12/02 02:16:25;;;;;;;17.73;13.93;;;4.00;99.90;;;;;;5114434;28;20438;-28
2020/12/02 02:18:53;;;;;;;21.50;14.00;;;4.00;99.90;;;;;;5114738;28;20510;-30
2020/12/02 02:21:24;;;;;;;19.87;14.40;;;3.90;99.90;;;;;;5113648;28;20570;-28
2020/12/02 02:23:52;;;;;;;20.20;13.20;;;3.80;99.90;;;;;;5126466;27;20485;-28
2020/12/02 02:26:30;;;;;;;21.63;13.67;;;3.90;99.90;;;;;;5134771;27;20438;-27
2020/12/02 02:29:04;;;;;;;17.83;13.20;;;3.80;99.90;;;;;;5134603;27;20506;-28
2020/12/02 02:31:38;;;;;;;17.67;13.60;;;3.80;99.90;;;;;;5134767;27;20536;-29
2020/12/02 02:34:08;;;;;;;15.97;11.60;;;3.80;99.90;;;;;;5133779;27;20699;-28
2020/12/02 02:36:35;;;;;;;18.87;13.83;;;3.80;99.90;;;;;;5134321;27;20536;-28
2020/12/02 02:39:02;;;;;;;16.47;13.30;;;3.80;99.90;;;;;;5134262;27;20506;-27
2020/12/02 02:41:31;;;;;;;19.80;13.20;;;3.80;99.90;;;;;;5135070;27;20896;-27
2020/12/02 02:43:58;;;;;;;17.90;13.13;;;3.70;99.90;;;;;;5134824;27;20527;-28
2020/12/02 02:46:24;;;;;;;15.80;13.10;;;3.70;99.90;;;;;;5134548;27;21073;-28
2020/12/02 02:48:52;;;;;;;17.10;13.17;;;3.60;99.90;;;;;;5132616;27;20486;-28
2020/12/02 02:51:20;;;;;;;15.20;12.33;;;3.60;99.90;;;;;;5134240;27;20422;-28
2020/12/02 02:53:48;;;;;;;18.40;14.10;;;3.60;99.90;;;;;;5134337;27;20458;-29
2020/12/02 02:56:16;;;;;;;17.40;12.73;;;3.70;99.90;;;;;;5133937;28;20528;-27
2020/12/02 02:58:44;;;;;;;19.00;14.13;;;3.80;99.90;;;;;;5134609;28;21006;-29
2020/12/02 03:01:12;;;;;;;20.93;13.87;;;3.90;99.90;;;;;;5134378;28;20462;-27
2020/12/02 03:03:39;;;;;;;15.57;13.07;;;3.90;99.90;;;;;;5134323;28;20539;-28
2020/12/02 03:06:09;;;;;;;13.80;12.20;;;3.80;99.90;;;;;;5134346;28;20430;-25
2020/12/02 03:08:36;;;;;;;18.40;12.67;;;3.80;99.90;;;;;;5133937;28;20445;-26
2020/12/02 03:11:06;;;;;;;15.50;12.17;;;3.90;99.90;;;;;;5134688;28;20492;-25
2020/12/02 03:13:40;;;;;;;18.80;13.43;;;3.90;99.90;;;;;;5133839;28;20802;-24
2020/12/02 03:16:14;;;;;;;16.73;12.90;;;3.90;99.90;;;;;;5133643;28;20457;-26
2020/12/02 03:18:44;;;;;;;20.00;13.90;;;4.00;99.90;;;;;;5122175;28;20470;-25
2020/12/02 03:21:15;;;;;;;19.37;13.40;;;3.90;99.90;;;;;;5113054;28;20435;-26
2020/12/02 03:23:42;;;;;;;18.20;14.80;;;4.00;99.90;;;;;;5113956;28;20695;-25
2020/12/02 03:26:10;;;;;;;15.00;12.17;;;3.90;99.90;;;;;;5113836;28;20519;-26
2020/12/02 03:28:38;;;;;;;16.47;13.40;;;3.90;99.90;;;;;;5113744;28;20908;-27
2020/12/02 03:31:10;;;;;;;18.73;12.47;;;3.90;99.90;;;;;;5114077;28;20479;-28
2020/12/02 03:33:38;;;;;;;18.10;13.40;;;4.00;99.90;;;;;;5112661;28;20527;-25
2020/12/02 03:36:05;;;;;;;17.90;12.80;;;4.00;99.90;;;;;;5112784;28;20500;-25
2020/12/02 03:38:33;;;;;;;18.13;12.90;;;3.90;99.90;;;;;;5113577;28;20439;-26
2020/12/02 03:41:00;;;;;;;18.73;14.23;;;4.00;99.90;;;;;;5112721;28;20492;-25
2020/12/02 03:43:28;;;;;;;22.30;14.70;;;4.00;99.90;;;;;;5112637;28;20522;-25
2020/12/02 03:45:55;;;;;;;18.40;13.13;;;4.00;99.90;;;;;;5112017;28;20458;-26
2020/12/02 03:48:23;;;;;;;23.80;14.20;;;4.00;99.90;;;;;;5123804;28;20538;-29
2020/12/02 03:50:51;;;;;;;20.73;13.60;;;4.00;99.90;;;;;;5133989;28;20800;-25
2020/12/02 03:53:19;;;;;;;18.00;13.13;;;4.00;99.90;;;;;;5135266;27;20487;-25
2020/12/02 03:55:47;;;;;;;17.07;13.20;;;4.00;99.90;;;;;;5137054;27;20491;-26
2020/12/02 03:58:15;;;;;;;20.83;14.60;;;4.00;99.90;;;;;;5138273;27;20708;-25
2020/12/02 04:00:44;;;;;;;19.77;14.20;;;4.00;99.90;;;;;;5137110;27;20847;-26
2020/12/02 04:03:12;;;;;;;17.10;13.30;;;4.00;99.90;;;;;;5137456;27;20465;-26
2020/12/02 04:05:40;;;;;;;22.37;15.30;;;3.90;99.90;;;;;;5137269;27;20445;-26
2020/12/02 04:08:08;;;;;;;22.47;15.20;;;3.80;99.90;;;;;;5137268;27;20491;-25
2020/12/02 04:10:35;;;;;;;23.07;14.67;;;3.80;99.90;;;;;;5137495;27;20441;-26
2020/12/02 04:13:02;;;;;;;22.03;15.00;;;3.70;99.90;;;;;;5137236;27;20489;-27
2020/12/02 04:15:30;;;;;;;18.90;14.53;;;3.70;99.90;;;;;;5136905;27;20442;-27
2020/12/02 04:17:58;;;;;;;21.63;15.37;;;3.70;99.90;;;;;;5137373;27;20442;-28
2020/12/02 04:20:26;;;;;;;20.17;14.33;;;3.80;99.90;;;;;;5136281;27;20442;-28
2020/12/02 04:22:55;;;;;;;22.17;14.70;;;3.90;99.90;;;;;;5118371;27;20452;-28
2020/12/02 04:25:25;;;;;;;20.07;15.10;;;4.00;99.90;;;;;;5136980;27;20458;-28
2020/12/02 04:27:53;;;;;;;22.83;15.83;;;4.00;99.90;;;;;;5136825;27;20530;-28
2020/12/02 04:30:21;;;;;;;17.60;14.00;;;4.00;99.90;;;;;;5136161;27;20515;-28
2020/12/02 04:32:49;;;;;;;21.57;14.53;;;4.10;99.90;;;;;;5135290;27;20562;-28
2020/12/02 04:35:17;;;;;;;22.30;14.70;;;4.10;99.90;;;;;;5134325;27;20487;-29
2020/12/02 04:37:45;;;;;;;19.67;14.00;;;4.10;99.90;;;;;;5135725;27;20441;-28
2020/12/02 04:40:20;;;;;;;24.17;14.50;;;4.10;99.90;;;;;;5135479;27;20561;-29
2020/12/02 04:42:54;;;;;;;22.43;14.17;;;4.10;99.90;;;;;;5135119;27;20529;-28
2020/12/02 04:45:22;;;;;;;23.63;15.80;;;4.10;99.90;;;;;;5135747;27;20534;-29
2020/12/02 04:47:49;;;;;;;20.63;14.33;;;4.10;99.90;;;;;;5135311;27;20992;-29
2020/12/02 04:50:22;;;;;;;25.60;15.30;;;4.00;99.90;;;;;;5135967;27;20888;-28
2020/12/02 04:53:00;;;;;;;23.47;15.30;;;4.00;99.90;;;;;;5112959;28;20883;-27
2020/12/02 04:55:29;;;;;;;25.10;15.90;;;4.00;99.90;;;;;;5114662;28;20462;-29
2020/12/02 04:57:56;;;;;;;21.70;14.87;;;4.00;99.90;;;;;;5113700;28;20913;-28
2020/12/02 05:00:30;;;;;;;21.10;15.83;;;4.00;99.90;;;;;;5114214;28;20434;-28
2020/12/02 05:03:17;;;;;;;21.13;14.50;;;4.00;99.90;;;;;;5114059;28;20560;-29
2020/12/02 05:05:44;;;;;;;24.60;16.50;;;3.80;99.90;;;;;;5114098;28;20466;-27
2020/12/02 05:08:20;;;;;;;24.70;15.23;;;3.80;99.90;;;;;;5129396;27;20956;-28
2020/12/02 05:10:50;;;;;;;25.17;15.77;;;3.80;99.90;;;;;;5133736;27;20442;-27
2020/12/02 05:13:17;;;;;;;30.97;15.90;;;3.80;99.90;;;;;;5133593;27;20564;-29
2020/12/02 05:15:44;;;;;;;29.10;18.53;;;3.80;99.90;;;;;;5132702;27;20552;-30
2020/12/02 05:18:22;;;;;;;26.80;16.90;;;3.80;99.90;;;;;;5133352;27;20773;-28
2020/12/02 05:21:18;;;;;;;30.60;18.13;;;3.70;99.90;;;;;;5132253;27;20450;-28
2020/12/02 05:24:03;;;;;;;26.20;16.27;;;3.80;99.90;;;;;;5120402;27;20548;-28
2020/12/02 05:26:33;;;;;;;23.23;16.23;;;3.80;99.90;;;;;;5129796;27;20462;-28
2020/12/02 05:29:06;;;;;;;28.03;16.63;;;3.80;99.90;;;;;;5131532;27;20762;-27
2020/12/02 05:31:34;;;;;;;28.47;17.37;;;3.80;99.90;;;;;;5131430;27;20438;-29
2020/12/02 05:34:13;;;;;;;33.23;18.60;;;3.90;99.90;;;;;;5130312;27;20944;-26
2020/12/02 05:36:46;;;;;;;27.80;18.50;;;4.00;99.90;;;;;;5119678;27;20862;-28
2020/12/02 05:39:21;;;;;;;28.70;19.40;;;4.00;99.90;;;;;;5129951;27;20446;-28
2020/12/02 05:41:53;;;;;;;27.60;18.60;;;4.00;99.90;;;;;;5128809;27;20449;-29
2020/12/02 05:44:35;;;;;;;25.73;16.53;;;4.00;99.90;;;;;;5129438;27;21061;-27
2020/12/02 05:47:06;;;;;;;28.23;17.27;;;4.00;99.90;;;;;;5129659;27;20457;-26
2020/12/02 05:49:43;;;;;;;31.17;17.67;;;4.00;99.90;;;;;;5107764;27;20472;-27
2020/12/02 05:52:14;;;;;;;28.37;17.20;;;4.10;99.90;;;;;;5124382;27;20596;-27
2020/12/02 05:54:42;;;;;;;25.87;16.90;;;4.10;99.90;;;;;;5123037;27;20441;-27
2020/12/02 05:57:16;;;;;;;29.03;17.60;;;4.10;99.90;;;;;;5125678;27;21143;-29
2020/12/02 05:59:47;;;;;;;27.00;18.10;;;4.10;99.90;;;;;;5129328;27;20425;-27
2020/12/02 06:02:18;;;;;;;32.43;18.17;;;4.10;99.90;;;;;;5124893;27;20936;-27
2020/12/02 06:04:50;;;;;;;30.97;16.67;;;4.10;99.90;;;;;;5126425;27;20534;-26
2020/12/02 06:07:19;;;;;;;25.13;16.20;;;4.20;99.90;;;;;;5123854;27;20445;-27
2020/12/02 06:09:50;;;;;;;30.53;18.10;;;4.20;99.90;;;;;;5126946;27;21025;-28
2020/12/02 06:12:21;;;;;;;32.43;19.00;;;4.20;99.90;;;;;;5123442;27;20482;-28
2020/12/02 06:14:49;;;;;;;30.80;18.30;;;4.20;99.90;;;;;;5122193;27;20442;-28
2020/12/02 06:17:27;;;;;;;24.60;16.90;;;4.20;99.90;;;;;;5121204;27;20430;-27
2020/12/02 06:19:55;;;;;;;32.10;18.27;;;4.20;99.90;;;;;;5135751;27;20758;-26
2020/12/02 06:22:50;;;;;;;28.50;17.70;;;4.20;99.90;;;;;;5120312;27;20514;-26
2020/12/02 06:25:41;;;;;;;29.70;17.23;;;4.20;99.90;;;;;;5118910;27;20688;-29
2020/12/02 06:28:10;;;;;;;29.57;18.53;;;4.10;99.90;;;;;;5117711;27;20445;-26
2020/12/02 06:30:38;;;;;;;32.77;19.27;;;4.00;99.90;;;;;;5121742;27;20458;-27
2020/12/02 06:33:21;;;;;;;25.53;16.57;;;4.00;99.90;;;;;;5117969;27;20934;-28
2020/12/02 06:36:18;;;;;;;31.13;19.40;;;4.10;99.90;;;;;;5115141;27;20495;-27
2020/12/02 06:38:46;;;;;;;38.70;21.93;;;4.10;99.90;;;;;;5115433;27;20498;-27
2020/12/02 06:41:36;;;;;;;33.80;20.93;;;4.00;99.90;;;;;;5114946;27;21092;-27
2020/12/02 06:44:44;;;;;;;44.57;22.30;;;4.00;99.90;;;;;;5111427;27;20511;-27
2020/12/02 06:47:28;;;;;;;37.50;19.53;;;4.00;99.90;;;;;;5098165;27;20497;-30
2020/12/02 06:50:11;;;;;;;33.93;21.53;;;4.00;99.90;;;;;;5110568;27;20874;-27
2020/12/02 06:52:39;;;;;;;41.90;21.77;;;3.90;99.90;;;;;;5112963;27;20469;-27
2020/12/02 06:55:20;;;;;;;38.00;21.63;;;3.90;99.90;;;;;;5110352;27;21079;-28
2020/12/02 06:57:58;;;;;;;39.40;22.27;;;3.90;99.90;;;;;;5091217;28;20911;-29
2020/12/02 07:00:28;;;;;;;31.00;19.93;;;3.90;99.90;;;;;;5087954;28;20624;-27
2020/12/02 07:03:19;;;;;;;40.27;21.67;;;4.00;99.90;;;;;;5071116;28;20493;-27
2020/12/02 07:05:52;;;;;;;44.87;21.63;;;4.00;99.90;;;;;;5089149;28;20439;-28
2020/12/02 07:08:25;;;;;;;41.73;23.17;;;4.00;99.90;;;;;;5083174;28;21059;-28
2020/12/02 07:11:05;;;;;;;37.47;20.90;;;4.10;99.90;;;;;;5092167;28;20489;-27
2020/12/02 07:13:36;;;;;;;48.43;25.10;;;4.10;99.90;;;;;;5108691;28;20466;-26
2020/12/02 07:16:11;;;;;;;39.60;23.30;;;4.10;99.90;;;;;;5105372;28;20437;-28
2020/12/02 07:18:39;;;;;;;40.57;24.17;;;4.00;99.90;;;;;;5104219;28;20456;-27
2020/12/02 07:21:19;;;;;;;46.63;24.10;;;4.00;99.90;;;;;;5104460;28;20494;-26
2020/12/02 07:23:47;;;;;;;38.40;22.70;;;3.90;99.90;;;;;;5103494;28;20470;-27
2020/12/02 07:26:14;;;;;;;51.23;25.70;;;4.00;99.90;;;;;;5083547;27;21381;-27
2020/12/02 07:28:41;;;;;;;45.70;24.73;;;4.00;99.90;;;;;;5108806;27;20460;-26
2020/12/02 07:31:21;;;;;;;59.93;26.33;;;4.00;99.90;;;;;;5100379;27;20440;-28
2020/12/02 07:34:03;;;;;;;56.03;25.63;;;3.80;99.90;;;;;;5105066;27;20607;-27
2020/12/02 07:36:31;;;;;;;49.73;25.63;;;3.80;99.90;;;;;;5091298;27;20501;-26
2020/12/02 07:39:05;;;;;;;48.70;25.63;;;3.70;99.90;;;;;;5086828;28;20450;-27
2020/12/02 07:41:33;;;;;;;48.83;25.57;;;3.80;99.90;;;;;;5083760;28;20445;-29
2020/12/02 07:44:02;;;;;;;49.70;27.30;;;3.80;99.90;;;;;;5084548;28;20444;-26
2020/12/02 07:46:31;;;;;;;47.03;25.47;;;3.90;99.90;;;;;;5082963;28;20431;-27
2020/12/02 07:49:01;;;;;;;52.60;27.63;;;4.00;99.90;;;;;;5089214;28;20529;-27
2020/12/02 07:51:32;;;;;;;50.47;25.73;;;4.00;99.90;;;;;;5072185;28;20690;-27
2020/12/02 07:54:06;;;;;;;51.60;25.00;;;4.00;99.90;;;;;;5086613;28;20466;-27
2020/12/02 07:56:38;;;;;;;51.13;24.90;;;4.10;99.90;;;;;;5071704;28;20542;-29
2020/12/02 07:59:14;;;;;;;48.67;26.67;;;4.10;99.90;;;;;;5063978;28;20467;-26
2020/12/02 08:02:08;;;;;;;50.50;25.93;;;4.20;99.90;;;;;;5068310;28;20490;-27
2020/12/02 08:04:53;;;;;;;53.03;27.57;;;4.20;99.90;;;;;;5072110;28;20455;-26
2020/12/02 08:07:23;;;;;;;49.33;24.67;;;4.20;99.90;;;;;;5073529;28;20735;-27
2020/12/02 08:09:59;;;;;;;43.97;24.00;;;4.20;99.90;;;;;;5072963;28;20435;-26
2020/12/02 08:12:32;;;;;;;46.10;23.17;;;4.20;99.90;;;;;;5073628;28;20446;-25
2020/12/02 08:15:03;;;;;;;51.83;23.93;;;4.20;99.90;;;;;;5077451;28;20543;-26
2020/12/02 08:17:30;;;;;;;50.83;26.33;;;4.20;99.90;;;;;;5072674;28;20459;-26
2020/12/02 08:20:03;;;;;;;49.03;22.80;;;4.30;99.90;;;;;;5073613;28;21326;-26
2020/12/02 08:22:40;;;;;;;43.93;24.77;;;4.40;99.90;;;;;;5075570;28;20933;-26
2020/12/02 08:25:20;;;;;;;48.57;26.47;;;4.50;99.90;;;;;;5069584;28;20463;-27
2020/12/02 08:27:49;;;;;;;53.30;26.63;;;4.50;99.90;;;;;;5069454;28;20495;-26
2020/12/02 08:30:20;;;;;;;44.03;22.47;;;4.50;99.90;;;;;;5078151;28;20443;-27
2020/12/02 08:32:55;;;;;;;40.40;23.07;;;4.60;99.90;;;;;;5079094;28;20485;-26
2020/12/02 08:35:32;;;;;;;40.20;21.47;;;4.60;99.90;;;;;;5084668;27;20516;-27
2020/12/02 08:38:02;;;;;;;43.17;23.07;;;4.70;99.90;;;;;;5081082;28;20447;-26
2020/12/02 08:40:44;;;;;;;40.73;22.40;;;4.70;99.90;;;;;;5081103;28;20454;-26
2020/12/02 08:43:40;;;;;;;40.07;23.73;;;4.70;99.90;;;;;;5083566;28;20435;-27
2020/12/02 08:46:28;;;;;;;37.10;20.60;;;4.70;99.90;;;;;;5081022;28;20881;-26
2020/12/02 08:48:59;;;;;;;39.10;25.10;;;4.70;99.90;;;;;;5084242;28;20941;-29
2020/12/02 08:51:27;;;;;;;39.57;21.77;;;4.80;99.90;;;;;;5078370;28;20466;-27
2020/12/02 08:53:56;;;;;;;39.83;22.80;;;4.80;99.90;;;;;;5081483;28;20477;-28
2020/12/02 08:56:34;;;;;;;35.23;21.10;;;4.80;99.90;;;;;;5081086;28;20452;-27
2020/12/02 08:59:02;;;;;;;32.03;20.73;;;4.80;99.90;;;;;;5079939;28;20443;-26
2020/12/02 09:01:29;;;;;;;31.50;19.10;;;4.80;99.90;;;;;;5056926;28;20442;-27
2020/12/02 09:04:00;;;;;;;34.40;20.40;;;4.90;99.90;;;;;;5076560;28;20451;-25
2020/12/02 09:06:27;;;;;;;28.70;16.97;;;4.90;99.90;;;;;;5077975;28;20450;-28
2020/12/02 09:08:55;;;;;;;28.37;18.87;;;4.80;99.90;;;;;;5077469;28;20810;-27
2020/12/02 09:11:27;;;;;;;30.73;17.43;;;4.80;99.90;;;;;;5079759;28;20439;-28
2020/12/02 09:13:58;;;;;;;30.73;17.77;;;4.80;99.90;;;;;;5064033;28;20517;-29
2020/12/02 09:16:31;;;;;;;28.23;17.30;;;4.80;99.90;;;;;;5076392;28;20466;-27
2020/12/02 09:18:59;;;;;;;27.23;16.53;;;4.80;99.90;;;;;;5075973;28;20793;-28
2020/12/02 09:21:28;;;;;;;29.47;17.63;;;4.80;99.90;;;;;;5078716;28;20459;-28
2020/12/02 09:23:58;;;;;;;33.60;20.13;;;4.80;99.90;;;;;;5073700;28;20439;-31
2020/12/02 09:26:28;;;;;;;28.33;17.23;;;4.80;99.90;;;;;;5088795;27;20484;-28
2020/12/02 09:28:56;;;;;;;25.13;16.20;;;4.80;99.90;;;;;;5080608;27;20456;-27
2020/12/02 09:31:25;;;;;;;28.27;16.70;;;4.80;99.90;;;;;;5078275;28;20431;-28
2020/12/02 09:33:52;;;;;;;28.97;18.33;;;4.80;99.90;;;;;;5082953;27;20473;-28
2020/12/02 09:36:21;;;;;;;27.10;17.07;;;4.80;99.90;;;;;;5092668;27;20551;-32
2020/12/02 09:38:51;;;;;;;32.10;18.43;;;4.80;99.90;;;;;;5079534;28;20434;-27
2020/12/02 09:41:44;;;;;;;25.27;16.13;;;4.80;99.90;;;;;;5079483;27;20458;-26
2020/12/02 09:44:30;;;;;;;27.30;15.20;;;4.60;99.90;;;;;;5096123;27;20493;-27
2020/12/02 09:47:00;;;;;;;28.63;15.63;;;4.60;99.90;;;;;;5101910;27;20913;-27
2020/12/02 09:49:29;;;;;;;28.57;15.43;;;4.60;99.90;;;;;;5089814;27;20478;-26
2020/12/02 09:52:24;;;;;;;21.07;15.17;;;4.60;99.90;;;;;;5087507;27;20524;-27
2020/12/02 09:54:53;;;;;;;24.17;16.00;;;4.70;99.90;;;;;;5078280;28;20531;-27
2020/12/02 09:57:26;;;;;;;26.77;15.40;;;4.70;99.90;;;;;;5094293;27;21216;-26
2020/12/02 09:59:55;;;;;;;27.20;16.73;;;4.80;99.90;;;;;;5093829;27;20564;-26
2020/12/02 10:02:49;;;;;;;32.30;20.57;;;4.80;99.90;;;;;;5078271;28;20445;-27
2020/12/02 10:05:30;;;;;;;26.37;19.70;;;4.90;99.90;;;;;;5084868;27;20473;-28
2020/12/02 10:08:05;;;;;;;24.83;17.20;;;4.80;99.90;;;;;;5096624;27;20489;-26
2020/12/02 10:10:43;;;;;;;25.20;16.80;;;4.80;99.90;;;;;;5093178;27;20434;-28
2020/12/02 10:13:57;;;;;;;25.73;17.90;;;4.80;99.90;;;;;;5085323;27;20562;-27
2020/12/02 10:16:33;;;;;;;31.20;19.50;;;4.80;99.90;;;;;;5015795;28;20571;-27
2020/12/02 10:19:26;;;;;;;33.43;19.03;;;4.80;99.90;;;;;;5068743;27;20462;-25
2020/12/02 10:22:19;;;;;;;40.10;20.57;;;4.70;99.90;;;;;;5098862;27;20490;-27
2020/12/02 10:25:16;;;;;;;29.33;17.63;;;4.70;99.90;;;;;;5101305;27;20446;-28
2020/12/02 10:28:01;;;;;;;32.70;20.07;;;4.70;99.90;;;;;;5088678;27;20820;-27
2020/12/02 10:30:30;;;;;;;31.33;18.70;;;4.70;99.90;;;;;;5093446;27;20442;-27
2020/12/02 10:33:37;;;;;;;30.60;19.27;;;4.70;99.90;;;;;;5094272;27;20465;-26
2020/12/02 10:36:05;;;;;;;35.53;19.70;;;4.80;99.90;;;;;;5026159;28;20448;-29
2020/12/02 10:38:38;;;;;;;33.00;20.77;;;4.80;99.90;;;;;;5035135;28;20545;-27
2020/12/02 10:41:37;;;;;;;38.30;20.10;;;4.70;99.90;;;;;;5035205;28;20817;-28
2020/12/02 10:44:38;;;;;;;32.83;20.17;;;4.50;99.90;;;;;;5031584;28;20536;-28
2020/12/02 10:47:33;;;;;;;39.87;20.83;;;4.50;99.90;;;;;;5029697;28;20448;-26
2020/12/02 10:50:00;;;;;;;31.10;19.73;;;4.50;99.90;;;;;;5018089;28;20460;-27
2020/12/02 10:52:28;;;;;;;32.53;19.13;;;4.60;99.90;;;;;;5037719;28;20527;-26
2020/12/02 10:54:56;;;;;;;35.47;18.73;;;4.70;99.90;;;;;;5078387;28;20508;-26
2020/12/02 10:57:24;;;;;;;33.17;17.60;;;4.70;99.90;;;;;;5098437;27;20462;-28
2020/12/02 10:59:56;;;;;;;32.93;18.23;;;4.70;99.90;;;;;;5103400;28;21214;-26
2020/12/02 11:02:24;;;;;;;27.90;19.10;;;4.60;99.90;;;;;;5101353;27;20561;-26
2020/12/02 11:04:51;;;;;;;29.10;17.37;;;4.40;99.90;;;;;;5101256;28;20454;-28
2020/12/02 11:07:33;;;;;;;27.30;17.90;;;4.50;99.90;;;;;;5097955;28;20473;-28
2020/12/02 11:10:03;;;;;;;31.17;16.97;;;4.40;99.90;;;;;;5098686;28;20448;-26
2020/12/02 11:13:01;;;;;;;29.07;16.70;;;4.20;99.90;;;;;;5098005;28;20538;-28
2020/12/02 11:15:34;;;;;;;30.30;16.63;;;4.20;99.90;;;;;;5070769;28;21115;-27
2020/12/02 11:18:27;;;;;;;29.67;18.50;;;4.10;99.90;;;;;;5104099;28;20481;-27
2020/12/02 11:21:09;;;;;;;27.17;16.93;;;4.10;99.90;;;;;;5102444;28;20533;-26
2020/12/02 11:23:51;;;;;;;33.70;19.47;;;4.20;99.90;;;;;;5082228;28;21092;-28
2020/12/02 11:26:25;;;;;;;27.70;16.73;;;4.30;99.90;;;;;;5084500;28;20466;-27
2020/12/02 11:28:57;;;;;;;35.67;18.70;;;4.30;99.90;;;;;;5082043;28;20442;-27
2020/12/02 11:32:01;;;;;;;31.90;17.83;;;4.30;99.90;;;;;;5080913;28;20448;-27
2020/12/02 11:34:48;;;;;;;39.93;19.10;;;4.50;99.90;;;;;;5083809;28;20466;-29
2020/12/02 11:37:39;;;;;;;31.07;16.40;;;4.60;99.90;;;;;;5093981;28;21153;-27
2020/12/02 11:40:29;;;;;;;32.23;18.37;;;4.60;99.90;;;;;;5064674;28;20543;-27
2020/12/02 11:43:09;;;;;;;27.70;16.67;;;4.60;99.90;;;;;;5052638;28;20446;-28
2020/12/02 11:45:40;;;;;;;28.63;17.27;;;4.60;99.90;;;;;;5090249;28;20786;-26
2020/12/02 11:48:19;;;;;;;32.27;17.63;;;4.60;99.90;;;;;;5088714;28;20439;-27
2020/12/02 11:50:50;;;;;;;27.40;16.87;;;4.60;99.90;;;;;;5077202;28;20457;-29
2020/12/02 11:53:39;;;;;;;34.10;17.90;;;4.70;99.90;;;;;;5079886;28;21014;-28
2020/12/02 11:56:13;;;;;;;27.33;16.30;;;4.40;99.90;;;;;;5069035;28;20446;-28
2020/12/02 11:58:43;;;;;;;29.00;16.90;;;4.50;99.90;;;;;;5077010;28;20489;-27
2020/12/02 12:01:26;;;;;;;29.43;16.80;;;4.70;99.90;;;;;;5055985;28;20460;-28
2020/12/02 12:04:04;;;;;;;26.93;15.83;;;4.90;99.90;;;;;;5058797;28;20583;-30
2020/12/02 12:06:32;;;;;;;30.30;16.63;;;4.80;99.90;;;;;;5070328;28;20450;-28
2020/12/02 12:09:08;;;;;;;24.90;17.00;;;4.60;99.90;;;;;;5070618;28;20451;-28
2020/12/02 12:11:38;;;;;;;22.70;13.77;;;4.50;99.90;;;;;;5065624;28;21443;-29
2020/12/02 12:14:13;;;;;;;25.40;16.80;;;4.30;99.90;;;;;;5064265;28;20514;-30
2020/12/02 12:16:52;;;;;;;25.77;15.30;;;4.30;99.90;;;;;;5086928;28;20454;-27
2020/12/02 12:19:30;;;;;;;27.87;17.57;;;4.30;99.90;;;;;;5087128;28;20453;-29
2020/12/02 12:22:10;;;;;;;26.10;14.43;;;4.40;99.90;;;;;;5091076;28;20437;-27
2020/12/02 12:24:37;;;;;;;27.70;15.57;;;4.40;99.90;;;;;;5087245;28;20492;-26
2020/12/02 12:27:05;;;;;;;25.23;16.50;;;4.30;99.90;;;;;;5076866;28;20451;-27
2020/12/02 12:29:33;;;;;;;21.90;14.97;;;4.20;99.90;;;;;;5081184;28;20451;-27
2020/12/02 12:32:07;;;;;;;32.73;16.27;;;4.30;99.90;;;;;;5081600;28;20749;-26
2020/12/02 12:34:42;;;;;;;30.00;17.70;;;4.30;99.90;;;;;;5077814;28;20643;-28
2020/12/02 12:37:21;;;;;;;22.20;14.87;;;4.30;99.90;;;;;;5078790;28;20449;-29
2020/12/02 12:39:55;;;;;;;21.23;14.30;;;4.30;99.90;;;;;;5082941;28;20443;-29
2020/12/02 12:42:27;;;;;;;24.47;13.43;;;4.30;99.90;;;;;;5068411;28;20440;-28
2020/12/02 12:44:59;;;;;;;22.33;14.23;;;4.20;99.90;;;;;;5068656;28;20428;-27
2020/12/02 12:47:30;;;;;;;25.50;14.60;;;4.10;99.90;;;;;;5079836;28;20439;-27
2020/12/02 12:50:13;;;;;;;23.50;14.10;;;4.10;99.90;;;;;;5078106;28;20443;-26
2020/12/02 12:52:46;;;;;;;24.07;13.40;;;4.30;99.90;;;;;;5086992;28;20549;-27
2020/12/02 12:55:14;;;;;;;24.00;15.07;;;4.30;99.90;;;;;;5086893;28;20450;-29
2020/12/02 12:57:50;;;;;;;25.57;16.10;;;4.30;99.90;;;;;;5084445;28;20434;-25
2020/12/02 13:00:19;;;;;;;25.27;18.87;;;4.30;99.90;;;;;;5072497;28;20457;-27
2020/12/02 13:03:10;;;;;;;25.97;14.03;;;4.40;99.90;;;;;;5081512;28;20576;-27
2020/12/02 13:05:38;;;;;;;24.50;13.33;;;4.40;99.90;;;;;;5080048;28;20443;-26
2020/12/02 13:08:23;;;;;;;27.67;17.20;;;4.40;99.90;;;;;;5080195;28;20500;-26
2020/12/02 13:10:57;;;;;;;28.87;15.83;;;4.40;99.90;;;;;;5049390;28;21077;-27